sensor_id;sensor_type;location;lat;lon;timestamp;pressure;altitude;pressure_sealevel;temperature;humidity
64713;BME280;51140;45.340;5.980;2023-12-20T00:01:16;98946.78;;;2.18;100.00
64713;BME280;51140;45.340;5.980;2023-12-20T00:03:41;98943.19;;;2.25;100.00
64713;BME280;51140;45.340;5.980;2023-12-20T00:06:07;98950.13;;;2.33;100.00
64713;BME280;51140;45.340;5.980;2023-12-20T00:08:32;98963.44;;;2.38;100.00
64713;BME280;51140;45.340;5.980;2023-12-20T00:10:57;98967.16;;;2.50;100.00
64713;BME280;51140;45.340;5.980;2023-12-20T00:13:23;98957.94;;;2.61;100.00
64713;BME280;51140;45.340;5.980;2023-12-20T00:15:48;98956.75;;;2.63;100.00
64713;BME280;51140;45.340;5.980;2023-12-20T00:18:13;98956.31;;;2.60;100.00
64713;BME280;51140;45.340;5.980;2023-12-20T00:20:39;98957.78;;;2.62;100.00
64713;BME280;51140;45.340;5.980;2023-12-20T00:23:04;98950.50;;;2.64;100.00
64713;BME280;51140;45.340;5.980;2023-12-20T00:25:30;98950.78;;;2.42;100.00
64713;BME280;51140;45.340;5.980;2023-12-20T00:27:55;98949.25;;;2.26;100.00
64713;BME280;51140;45.340;5.980;2023-12-20T00:30:20;98949.41;;;2.18;100.00
64713;BME280;51140;45.340;5.980;2023-12-20T00:32:46;98933.97;;;2.29;100.00
64713;BME280;51140;45.340;5.980;2023-12-20T00:35:18;98933.66;;;2.39;100.00
64713;BME280;51140;45.340;5.980;2023-12-20T00:37:43;98930.38;;;2.37;100.00
64713;BME280;51140;45.340;5.980;2023-12-20T00:40:09;98929.88;;;2.48;100.00
64713;BME280;51140;45.340;5.980;2023-12-20T00:42:35;98927.25;;;2.48;100.00
64713;BME280;51140;45.340;5.980;2023-12-20T00:45:04;98920.81;;;2.51;100.00
64713;BME280;51140;45.340;5.980;2023-12-20T00:47:30;98917.16;;;2.52;100.00
64713;BME280;51140;45.340;5.980;2023-12-20T00:49:56;98912.94;;;2.51;100.00
64713;BME280;51140;45.340;5.980;2023-12-20T00:52:21;98916.50;;;2.37;100.00
64713;BME280;51140;45.340;5.980;2023-12-20T00:54:48;98912.69;;;2.46;100.00
64713;BME280;51140;45.340;5.980;2023-12-20T00:57:13;98910.88;;;2.40;100.00
64713;BME280;51140;45.340;5.980;2023-12-20T00:59:38;98903.88;;;2.53;100.00
64713;BME280;51140;45.340;5.980;2023-12-20T01:02:04;98908.97;;;2.61;100.00
64713;BME280;51140;45.340;5.980;2023-12-20T01:04:29;98898.06;;;2.58;100.00
64713;BME280;51140;45.340;5.980;2023-12-20T01:06:54;98913.66;;;2.72;100.00
64713;BME280;51140;45.340;5.980;2023-12-20T01:09:20;98918.75;;;2.87;100.00
64713;BME280;51140;45.340;5.980;2023-12-20T01:11:48;98920.78;;;2.92;100.00
64713;BME280;51140;45.340;5.980;2023-12-20T01:14:14;98930.69;;;3.03;100.00
64713;BME280;51140;45.340;5.980;2023-12-20T01:16:39;98933.56;;;3.08;100.00
64713;BME280;51140;45.340;5.980;2023-12-20T01:19:04;98935.94;;;3.03;100.00
64713;BME280;51140;45.340;5.980;2023-12-20T01:21:30;98927.47;;;3.01;100.00
64713;BME280;51140;45.340;5.980;2023-12-20T01:23:55;98931.50;;;2.97;100.00
64713;BME280;51140;45.340;5.980;2023-12-20T01:26:20;98928.28;;;3.01;100.00
64713;BME280;51140;45.340;5.980;2023-12-20T01:28:46;98927.13;;;3.17;100.00
64713;BME280;51140;45.340;5.980;2023-12-20T01:31:11;98916.78;;;2.96;100.00
64713;BME280;51140;45.340;5.980;2023-12-20T01:33:37;98919.56;;;2.87;100.00
64713;BME280;51140;45.340;5.980;2023-12-20T01:36:03;98906.38;;;2.74;100.00
64713;BME280;51140;45.340;5.980;2023-12-20T01:38:28;98899.03;;;2.98;100.00
64713;BME280;51140;45.340;5.980;2023-12-20T01:40:54;98924.47;;;3.04;100.00
64713;BME280;51140;45.340;5.980;2023-12-20T01:43:19;98934.28;;;2.88;100.00
64713;BME280;51140;45.340;5.980;2023-12-20T01:45:44;98932.34;;;3.04;100.00
64713;BME280;51140;45.340;5.980;2023-12-20T01:48:10;98941.03;;;3.11;100.00
64713;BME280;51140;45.340;5.980;2023-12-20T01:50:36;98948.53;;;3.14;100.00
64713;BME280;51140;45.340;5.980;2023-12-20T01:53:04;98952.16;;;3.19;100.00
64713;BME280;51140;45.340;5.980;2023-12-20T01:55:33;98946.94;;;3.19;100.00
64713;BME280;51140;45.340;5.980;2023-12-20T01:58:00;98936.00;;;3.16;100.00
64713;BME280;51140;45.340;5.980;2023-12-20T02:00:26;98934.81;;;3.18;100.00
64713;BME280;51140;45.340;5.980;2023-12-20T02:02:53;98932.59;;;3.22;100.00
64713;BME280;51140;45.340;5.980;2023-12-20T02:05:22;98924.34;;;3.25;100.00
64713;BME280;51140;45.340;5.980;2023-12-20T02:07:49;98933.69;;;2.86;100.00
64713;BME280;51140;45.340;5.980;2023-12-20T02:10:15;98926.81;;;2.85;100.00
64713;BME280;51140;45.340;5.980;2023-12-20T02:12:41;98928.63;;;2.85;100.00
64713;BME280;51140;45.340;5.980;2023-12-20T02:15:06;98926.84;;;2.92;100.00
64713;BME280;51140;45.340;5.980;2023-12-20T02:17:32;98920.34;;;2.81;100.00
64713;BME280;51140;45.340;5.980;2023-12-20T02:19:58;98917.13;;;2.79;100.00
64713;BME280;51140;45.340;5.980;2023-12-20T02:22:23;98911.50;;;2.89;100.00
64713;BME280;51140;45.340;5.980;2023-12-20T02:24:48;98896.72;;;2.75;100.00
64713;BME280;51140;45.340;5.980;2023-12-20T02:27:15;98888.38;;;2.58;100.00
64713;BME280;51140;45.340;5.980;2023-12-20T02:29:43;98884.25;;;2.36;100.00
64713;BME280;51140;45.340;5.980;2023-12-20T02:32:08;98873.69;;;2.23;100.00
64713;BME280;51140;45.340;5.980;2023-12-20T02:34:33;98870.69;;;2.26;100.00
64713;BME280;51140;45.340;5.980;2023-12-20T02:36:59;98869.56;;;2.42;100.00
64713;BME280;51140;45.340;5.980;2023-12-20T02:39:24;98867.00;;;2.55;100.00
64713;BME280;51140;45.340;5.980;2023-12-20T02:41:49;98863.22;;;2.64;100.00
64713;BME280;51140;45.340;5.980;2023-12-20T02:44:15;98855.59;;;2.75;100.00
64713;BME280;51140;45.340;5.980;2023-12-20T02:46:40;98844.13;;;2.89;100.00
64713;BME280;51140;45.340;5.980;2023-12-20T02:49:06;98841.53;;;2.96;100.00
64713;BME280;51140;45.340;5.980;2023-12-20T02:51:31;98832.66;;;3.04;100.00
64713;BME280;51140;45.340;5.980;2023-12-20T02:53:57;98821.59;;;3.15;100.00
64713;BME280;51140;45.340;5.980;2023-12-20T02:56:22;98814.53;;;3.28;100.00
64713;BME280;51140;45.340;5.980;2023-12-20T02:58:47;98818.56;;;3.05;100.00
64713;BME280;51140;45.340;5.980;2023-12-20T03:01:13;98821.38;;;3.10;100.00
64713;BME280;51140;45.340;5.980;2023-12-20T03:03:39;98829.66;;;3.20;100.00
64713;BME280;51140;45.340;5.980;2023-12-20T03:06:04;98838.50;;;3.06;100.00
64713;BME280;51140;45.340;5.980;2023-12-20T03:08:29;98831.22;;;2.95;100.00
64713;BME280;51140;45.340;5.980;2023-12-20T03:10:55;98830.22;;;2.82;100.00
64713;BME280;51140;45.340;5.980;2023-12-20T03:13:20;98827.63;;;2.96;100.00
64713;BME280;51140;45.340;5.980;2023-12-20T03:15:46;98836.91;;;2.98;100.00
64713;BME280;51140;45.340;5.980;2023-12-20T03:18:11;98843.53;;;2.87;100.00
64713;BME280;51140;45.340;5.980;2023-12-20T03:20:36;98831.00;;;2.83;100.00
64713;BME280;51140;45.340;5.980;2023-12-20T03:23:02;98834.44;;;2.83;100.00
64713;BME280;51140;45.340;5.980;2023-12-20T03:25:28;98834.25;;;2.92;100.00
64713;BME280;51140;45.340;5.980;2023-12-20T03:27:53;98827.63;;;2.96;100.00
64713;BME280;51140;45.340;5.980;2023-12-20T03:30:19;98828.44;;;2.96;100.00
64713;BME280;51140;45.340;5.980;2023-12-20T03:32:44;98837.91;;;3.04;100.00
64713;BME280;51140;45.340;5.980;2023-12-20T03:35:10;98834.47;;;2.97;100.00
64713;BME280;51140;45.340;5.980;2023-12-20T03:37:36;98822.94;;;2.84;100.00
64713;BME280;51140;45.340;5.980;2023-12-20T03:40:01;98807.84;;;2.93;100.00
64713;BME280;51140;45.340;5.980;2023-12-20T03:42:27;98804.44;;;3.12;100.00
64713;BME280;51140;45.340;5.980;2023-12-20T03:44:52;98810.69;;;3.11;100.00
64713;BME280;51140;45.340;5.980;2023-12-20T03:47:17;98812.91;;;3.08;100.00
64713;BME280;51140;45.340;5.980;2023-12-20T03:49:43;98803.22;;;3.02;100.00
64713;BME280;51140;45.340;5.980;2023-12-20T03:52:08;98803.41;;;3.07;100.00
64713;BME280;51140;45.340;5.980;2023-12-20T03:54:35;98803.22;;;3.08;99.84
64713;BME280;51140;45.340;5.980;2023-12-20T03:57:00;98794.94;;;3.18;100.00
64713;BME280;51140;45.340;5.980;2023-12-20T03:59:25;98798.19;;;3.20;100.00
64713;BME280;51140;45.340;5.980;2023-12-20T04:01:51;98792.34;;;3.31;100.00
64713;BME280;51140;45.340;5.980;2023-12-20T04:04:16;98803.84;;;3.36;100.00
64713;BME280;51140;45.340;5.980;2023-12-20T04:06:41;98810.13;;;3.42;100.00
64713;BME280;51140;45.340;5.980;2023-12-20T04:09:07;98803.03;;;3.16;100.00
64713;BME280;51140;45.340;5.980;2023-12-20T04:11:34;98806.28;;;3.25;100.00
64713;BME280;51140;45.340;5.980;2023-12-20T04:14:00;98797.19;;;3.21;100.00
64713;BME280;51140;45.340;5.980;2023-12-20T04:16:26;98798.78;;;3.35;100.00
64713;BME280;51140;45.340;5.980;2023-12-20T04:18:51;98803.25;;;3.41;100.00
64713;BME280;51140;45.340;5.980;2023-12-20T04:21:16;98794.34;;;3.48;100.00
64713;BME280;51140;45.340;5.980;2023-12-20T04:23:42;98794.38;;;3.35;100.00
64713;BME280;51140;45.340;5.980;2023-12-20T04:26:07;98785.69;;;3.35;100.00
64713;BME280;51140;45.340;5.980;2023-12-20T04:28:32;98792.16;;;3.39;100.00
64713;BME280;51140;45.340;5.980;2023-12-20T04:30:58;98789.50;;;3.26;100.00
64713;BME280;51140;45.340;5.980;2023-12-20T04:33:23;98789.28;;;3.34;100.00
64713;BME280;51140;45.340;5.980;2023-12-20T04:35:48;98793.16;;;3.38;100.00
64713;BME280;51140;45.340;5.980;2023-12-20T04:38:14;98801.84;;;3.45;100.00
64713;BME280;51140;45.340;5.980;2023-12-20T04:40:39;98805.06;;;3.47;100.00
64713;BME280;51140;45.340;5.980;2023-12-20T04:43:06;98808.50;;;3.47;100.00
64713;BME280;51140;45.340;5.980;2023-12-20T04:45:32;98802.41;;;3.34;100.00
64713;BME280;51140;45.340;5.980;2023-12-20T04:47:57;98800.22;;;3.24;100.00
64713;BME280;51140;45.340;5.980;2023-12-20T04:50:23;98798.00;;;3.28;100.00
64713;BME280;51140;45.340;5.980;2023-12-20T04:52:48;98793.34;;;3.30;100.00
64713;BME280;51140;45.340;5.980;2023-12-20T04:55:14;98798.38;;;3.31;100.00
64713;BME280;51140;45.340;5.980;2023-12-20T04:57:39;98796.78;;;3.37;100.00
64713;BME280;51140;45.340;5.980;2023-12-20T05:00:05;98802.44;;;3.40;100.00
64713;BME280;51140;45.340;5.980;2023-12-20T05:02:31;98789.72;;;3.31;100.00
64713;BME280;51140;45.340;5.980;2023-12-20T05:04:56;98799.78;;;3.34;100.00
64713;BME280;51140;45.340;5.980;2023-12-20T05:07:22;98789.50;;;3.26;100.00
64713;BME280;51140;45.340;5.980;2023-12-20T05:09:47;98792.75;;;3.34;100.00
64713;BME280;51140;45.340;5.980;2023-12-20T05:12:12;98791.13;;;3.33;100.00
64713;BME280;51140;45.340;5.980;2023-12-20T05:14:38;98790.88;;;2.89;100.00
64713;BME280;51140;45.340;5.980;2023-12-20T05:17:03;98785.22;;;2.85;100.00
64713;BME280;51140;45.340;5.980;2023-12-20T05:19:29;98790.69;;;2.84;100.00
64713;BME280;51140;45.340;5.980;2023-12-20T05:21:54;98783.41;;;2.86;100.00
64713;BME280;51140;45.340;5.980;2023-12-20T05:24:19;98782.56;;;2.66;100.00
64713;BME280;51140;45.340;5.980;2023-12-20T05:26:45;98783.00;;;2.89;100.00
64713;BME280;51140;45.340;5.980;2023-12-20T05:29:10;98774.78;;;2.99;100.00
64713;BME280;51140;45.340;5.980;2023-12-20T05:31:35;98781.19;;;2.76;100.00
64713;BME280;51140;45.340;5.980;2023-12-20T05:34:01;98780.59;;;2.81;100.00
64713;BME280;51140;45.340;5.980;2023-12-20T05:36:26;98772.94;;;2.79;100.00
64713;BME280;51140;45.340;5.980;2023-12-20T05:38:52;98776.31;;;2.67;100.00
64713;BME280;51140;45.340;5.980;2023-12-20T05:41:17;98775.56;;;2.79;100.00
64713;BME280;51140;45.340;5.980;2023-12-20T05:43:42;98779.56;;;2.88;100.00
64713;BME280;51140;45.340;5.980;2023-12-20T05:46:10;98783.03;;;2.82;100.00
64713;BME280;51140;45.340;5.980;2023-12-20T05:48:36;98782.38;;;2.80;100.00
64713;BME280;51140;45.340;5.980;2023-12-20T05:51:01;98782.19;;;2.88;100.00
64713;BME280;51140;45.340;5.980;2023-12-20T05:53:27;98774.78;;;2.99;100.00
64713;BME280;51140;45.340;5.980;2023-12-20T05:55:52;98777.19;;;3.07;100.00
64713;BME280;51140;45.340;5.980;2023-12-20T05:58:17;98774.16;;;3.10;100.00
64713;BME280;51140;45.340;5.980;2023-12-20T06:00:43;98771.53;;;2.97;100.00
64713;BME280;51140;45.340;5.980;2023-12-20T06:03:08;98785.44;;;2.91;100.00
64713;BME280;51140;45.340;5.980;2023-12-20T06:05:33;98775.78;;;2.91;100.00
64713;BME280;51140;45.340;5.980;2023-12-20T06:07:59;98775.53;;;2.86;100.00
64713;BME280;51140;45.340;5.980;2023-12-20T06:10:28;98777.16;;;2.80;100.00
64713;BME280;51140;45.340;5.980;2023-12-20T06:12:53;98791.47;;;2.78;100.00
64713;BME280;51140;45.340;5.980;2023-12-20T06:15:18;98793.50;;;2.76;100.00
64713;BME280;51140;45.340;5.980;2023-12-20T06:17:44;98791.28;;;2.86;100.00
64713;BME280;51140;45.340;5.980;2023-12-20T06:20:10;98783.81;;;2.89;100.00
64713;BME280;51140;45.340;5.980;2023-12-20T06:22:35;98776.56;;;2.92;100.00
64713;BME280;51140;45.340;5.980;2023-12-20T06:25:02;98780.63;;;3.07;100.00
64713;BME280;51140;45.340;5.980;2023-12-20T06:27:28;98779.22;;;3.05;100.00
64713;BME280;51140;45.340;5.980;2023-12-20T06:29:54;98763.66;;;3.03;100.00
64713;BME280;51140;45.340;5.980;2023-12-20T06:32:19;98764.91;;;3.14;100.00
64713;BME280;51140;45.340;5.980;2023-12-20T06:34:45;98764.47;;;3.17;100.00
64713;BME280;51140;45.340;5.980;2023-12-20T06:37:10;98768.91;;;3.23;100.00
64713;BME280;51140;45.340;5.980;2023-12-20T06:39:35;98748.34;;;3.20;100.00
64713;BME280;51140;45.340;5.980;2023-12-20T06:42:01;98744.91;;;3.13;100.00
64713;BME280;51140;45.340;5.980;2023-12-20T06:44:26;98737.84;;;3.07;100.00
64713;BME280;51140;45.340;5.980;2023-12-20T06:46:51;98742.91;;;3.02;100.00
64713;BME280;51140;45.340;5.980;2023-12-20T06:49:17;98750.78;;;3.02;100.00
64713;BME280;51140;45.340;5.980;2023-12-20T06:51:43;98763.69;;;3.10;100.00
64713;BME280;51140;45.340;5.980;2023-12-20T06:54:09;98757.81;;;3.14;100.00
64713;BME280;51140;45.340;5.980;2023-12-20T06:56:34;98756.59;;;3.04;100.00
64713;BME280;51140;45.340;5.980;2023-12-20T06:59:00;98759.22;;;3.04;100.00
64713;BME280;51140;45.340;5.980;2023-12-20T07:01:25;98763.09;;;3.08;100.00
64713;BME280;51140;45.340;5.980;2023-12-20T07:03:50;98758.03;;;3.00;100.00
64713;BME280;51140;45.340;5.980;2023-12-20T07:06:16;98760.66;;;3.13;100.00
64713;BME280;51140;45.340;5.980;2023-12-20T07:08:42;98764.28;;;2.99;100.00
64713;BME280;51140;45.340;5.980;2023-12-20T07:11:07;98778.59;;;3.09;100.00
64713;BME280;51140;45.340;5.980;2023-12-20T07:13:33;98785.88;;;3.14;100.00
64713;BME280;51140;45.340;5.980;2023-12-20T07:15:58;98780.19;;;2.97;100.00
64713;BME280;51140;45.340;5.980;2023-12-20T07:18:23;98792.13;;;3.00;100.00
64713;BME280;51140;45.340;5.980;2023-12-20T07:20:49;98795.56;;;3.07;100.00
64713;BME280;51140;45.340;5.980;2023-12-20T07:23:14;98789.91;;;3.10;100.00
64713;BME280;51140;45.340;5.980;2023-12-20T07:25:39;98789.72;;;3.05;100.00
64713;BME280;51140;45.340;5.980;2023-12-20T07:28:05;98778.63;;;3.16;100.00
64713;BME280;51140;45.340;5.980;2023-12-20T07:30:31;98784.88;;;3.28;100.00
64713;BME280;51140;45.340;5.980;2023-12-20T07:32:56;98793.38;;;3.36;100.00
64713;BME280;51140;45.340;5.980;2023-12-20T07:35:23;98796.78;;;3.30;100.00
64713;BME280;51140;45.340;5.980;2023-12-20T07:37:48;98806.25;;;3.31;100.00
64713;BME280;51140;45.340;5.980;2023-12-20T07:40:14;98802.84;;;3.24;100.00
64713;BME280;51140;45.340;5.980;2023-12-20T07:42:42;98808.47;;;3.15;100.00
64713;BME280;51140;45.340;5.980;2023-12-20T07:45:07;98800.78;;;2.94;100.00
64713;BME280;51140;45.340;5.980;2023-12-20T07:47:33;98802.63;;;3.00;100.00
64713;BME280;51140;45.340;5.980;2023-12-20T07:49:58;98810.28;;;3.08;100.00
64713;BME280;51140;45.340;5.980;2023-12-20T07:52:23;98805.44;;;2.98;100.00
64713;BME280;51140;45.340;5.980;2023-12-20T07:54:49;98797.13;;;2.95;100.00
64713;BME280;51140;45.340;5.980;2023-12-20T07:57:14;98820.38;;;3.11;100.00
64713;BME280;51140;45.340;5.980;2023-12-20T07:59:39;98809.06;;;3.04;100.00
64713;BME280;51140;45.340;5.980;2023-12-20T08:02:05;98817.94;;;3.03;100.00
64713;BME280;51140;45.340;5.980;2023-12-20T08:04:31;98835.50;;;3.02;100.00
64713;BME280;51140;45.340;5.980;2023-12-20T08:06:57;98835.09;;;3.05;100.00
64713;BME280;51140;45.340;5.980;2023-12-20T08:09:23;98827.25;;;3.05;100.00
64713;BME280;51140;45.340;5.980;2023-12-20T08:11:49;98824.59;;;3.12;100.00
64713;BME280;51140;45.340;5.980;2023-12-20T08:14:15;98825.41;;;3.12;100.00
64713;BME280;51140;45.340;5.980;2023-12-20T08:16:40;98828.03;;;3.12;100.00
64713;BME280;51140;45.340;5.980;2023-12-20T08:19:06;98828.44;;;3.09;100.00
64713;BME280;51140;45.340;5.980;2023-12-20T08:21:31;98826.63;;;3.10;100.00
64713;BME280;51140;45.340;5.980;2023-12-20T08:23:56;98833.69;;;3.09;100.00
64713;BME280;51140;45.340;5.980;2023-12-20T08:26:22;98842.16;;;3.11;100.00
64713;BME280;51140;45.340;5.980;2023-12-20T08:28:49;98836.72;;;3.00;100.00
64713;BME280;51140;45.340;5.980;2023-12-20T08:31:15;98838.31;;;3.01;100.00
64713;BME280;51140;45.340;5.980;2023-12-20T08:33:44;98853.47;;;3.12;100.00
64713;BME280;51140;45.340;5.980;2023-12-20T08:36:10;98838.75;;;3.11;100.00
64713;BME280;51140;45.340;5.980;2023-12-20T08:38:36;98852.66;;;3.11;100.00
64713;BME280;51140;45.340;5.980;2023-12-20T08:41:01;98852.25;;;3.08;100.00
64713;BME280;51140;45.340;5.980;2023-12-20T08:43:28;98853.25;;;3.07;100.00
64713;BME280;51140;45.340;5.980;2023-12-20T08:45:54;98846.19;;;3.01;100.00
64713;BME280;51140;45.340;5.980;2023-12-20T08:48:19;98848.59;;;3.09;100.00
64713;BME280;51140;45.340;5.980;2023-12-20T08:50:45;98845.19;;;3.15;100.00
64713;BME280;51140;45.340;5.980;2023-12-20T08:53:10;98844.41;;;3.21;100.00
64713;BME280;51140;45.340;5.980;2023-12-20T08:55:36;98850.88;;;3.25;100.00
64713;BME280;51140;45.340;5.980;2023-12-20T08:58:02;98853.69;;;3.30;100.00
64713;BME280;51140;45.340;5.980;2023-12-20T09:00:27;98859.16;;;3.35;100.00
64713;BME280;51140;45.340;5.980;2023-12-20T09:02:54;98860.56;;;3.44;100.00
64713;BME280;51140;45.340;5.980;2023-12-20T09:05:19;98866.63;;;3.38;100.00
64713;BME280;51140;45.340;5.980;2023-12-20T09:07:45;98860.38;;;3.39;100.00
64713;BME280;51140;45.340;5.980;2023-12-20T09:10:10;98853.31;;;3.46;100.00
64713;BME280;51140;45.340;5.980;2023-12-20T09:12:36;98853.94;;;3.48;100.00
64713;BME280;51140;45.340;5.980;2023-12-20T09:15:05;98856.94;;;3.52;100.00
64713;BME280;51140;45.340;5.980;2023-12-20T09:17:30;98860.78;;;3.49;100.00
64713;BME280;51140;45.340;5.980;2023-12-20T09:19:56;98858.94;;;3.63;100.00
64713;BME280;51140;45.340;5.980;2023-12-20T09:22:21;98854.72;;;3.68;100.00
64713;BME280;51140;45.340;5.980;2023-12-20T09:24:47;98861.78;;;3.81;100.00
64713;BME280;51140;45.340;5.980;2023-12-20T09:27:12;98855.31;;;3.83;100.00
64713;BME280;51140;45.340;5.980;2023-12-20T09:29:37;98847.63;;;3.88;100.00
64713;BME280;51140;45.340;5.980;2023-12-20T09:32:03;98869.03;;;3.92;100.00
64713;BME280;51140;45.340;5.980;2023-12-20T09:34:28;98872.28;;;3.87;100.00
64713;BME280;51140;45.340;5.980;2023-12-20T09:36:54;98870.06;;;3.97;100.00
64713;BME280;51140;45.340;5.980;2023-12-20T09:39:20;98879.16;;;4.08;100.00
64713;BME280;51140;45.340;5.980;2023-12-20T09:42:03;98877.31;;;4.15;100.00
64713;BME280;51140;45.340;5.980;2023-12-20T09:44:30;98877.50;;;4.20;100.00
64713;BME280;51140;45.340;5.980;2023-12-20T09:46:57;98875.44;;;4.29;100.00
64713;BME280;51140;45.340;5.980;2023-12-20T09:49:22;98866.75;;;4.41;100.00
64713;BME280;51140;45.340;5.980;2023-12-20T09:51:50;98873.41;;;4.44;100.00
64713;BME280;51140;45.340;5.980;2023-12-20T09:54:17;98867.72;;;4.47;100.00
64713;BME280;51140;45.340;5.980;2023-12-20T09:56:42;98879.41;;;4.57;100.00
64713;BME280;51140;45.340;5.980;2023-12-20T09:59:08;98872.13;;;4.59;100.00
64713;BME280;51140;45.340;5.980;2023-12-20T10:01:34;98868.47;;;4.67;100.00
64713;BME280;51140;45.340;5.980;2023-12-20T10:04:00;98864.19;;;4.79;100.00
64713;BME280;51140;45.340;5.980;2023-12-20T10:06:27;98861.69;;;4.91;100.00
64713;BME280;51140;45.340;5.980;2023-12-20T10:08:52;98860.41;;;5.00;100.00
64713;BME280;51140;45.340;5.980;2023-12-20T10:11:18;98859.78;;;5.04;100.00
64713;BME280;51140;45.340;5.980;2023-12-20T10:13:47;98853.31;;;5.00;100.00
64713;BME280;51140;45.340;5.980;2023-12-20T10:16:13;98844.94;;;5.16;100.00
64713;BME280;51140;45.340;5.980;2023-12-20T10:18:39;98835.22;;;5.17;100.00
64713;BME280;51140;45.340;5.980;2023-12-20T10:21:04;98822.16;;;5.04;100.00
64713;BME280;51140;45.340;5.980;2023-12-20T10:23:31;98828.53;;;5.14;100.00
64713;BME280;51140;45.340;5.980;2023-12-20T10:26:00;98827.28;;;5.24;100.00
64713;BME280;51140;45.340;5.980;2023-12-20T10:28:25;98821.19;;;5.23;100.00
64713;BME280;51140;45.340;5.980;2023-12-20T10:30:54;98828.91;;;5.25;100.00
64713;BME280;51140;45.340;5.980;2023-12-20T10:33:24;98822.16;;;5.29;100.00
64713;BME280;51140;45.340;5.980;2023-12-20T10:35:51;98826.84;;;5.27;100.00
64713;BME280;51140;45.340;5.980;2023-12-20T10:38:17;98814.94;;;5.24;100.00
64713;BME280;51140;45.340;5.980;2023-12-20T10:40:42;98809.34;;;5.39;100.00
64713;BME280;51140;45.340;5.980;2023-12-20T10:43:10;98811.81;;;5.58;100.00
64713;BME280;51140;45.340;5.980;2023-12-20T10:45:36;98813.16;;;5.67;100.00
64713;BME280;51140;45.340;5.980;2023-12-20T10:48:02;98810.25;;;5.75;100.00
64713;BME280;51140;45.340;5.980;2023-12-20T10:50:28;98809.69;;;5.73;100.00
64713;BME280;51140;45.340;5.980;2023-12-20T10:52:55;98817.50;;;5.80;100.00
64713;BME280;51140;45.340;5.980;2023-12-20T10:55:24;98808.59;;;5.81;100.00
64713;BME280;51140;45.340;5.980;2023-12-20T10:58:02;98808.75;;;5.86;100.00
64713;BME280;51140;45.340;5.980;2023-12-20T11:00:31;98807.94;;;5.86;100.00
64713;BME280;51140;45.340;5.980;2023-12-20T11:03:00;98800.00;;;5.92;100.00
64713;BME280;51140;45.340;5.980;2023-12-20T11:08:19;98800.38;;;5.96;100.00
64713;BME280;51140;45.340;5.980;2023-12-20T11:10:55;98802.41;;;5.94;100.00
64713;BME280;51140;45.340;5.980;2023-12-20T11:13:54;98799.75;;;5.94;100.00
64713;BME280;51140;45.340;5.980;2023-12-20T11:16:20;98792.03;;;5.99;100.00
64713;BME280;51140;45.340;5.980;2023-12-20T11:18:46;98801.19;;;5.96;100.00
64713;BME280;51140;45.340;5.980;2023-12-20T11:21:11;98792.09;;;5.92;100.00
64713;BME280;51140;45.340;5.980;2023-12-20T11:23:38;98789.38;;;5.99;100.00
64713;BME280;51140;45.340;5.980;2023-12-20T11:26:04;98783.97;;;6.12;100.00
64713;BME280;51140;45.340;5.980;2023-12-20T11:28:29;98781.63;;;6.22;100.00
64713;BME280;51140;45.340;5.980;2023-12-20T11:30:56;98787.19;;;6.14;100.00
64713;BME280;51140;45.340;5.980;2023-12-20T11:33:37;98798.03;;;6.24;100.00
64713;BME280;51140;45.340;5.980;2023-12-20T11:36:03;98787.50;;;6.24;100.00
64713;BME280;51140;45.340;5.980;2023-12-20T11:38:37;98777.16;;;6.22;100.00
64713;BME280;51140;45.340;5.980;2023-12-20T11:41:05;98776.00;;;6.18;100.00
64713;BME280;51140;45.340;5.980;2023-12-20T11:43:31;98770.84;;;6.23;100.00
64713;BME280;51140;45.340;5.980;2023-12-20T11:46:04;98765.97;;;6.27;100.00
64713;BME280;51140;45.340;5.980;2023-12-20T11:48:30;98768.06;;;6.37;100.00
64713;BME280;51140;45.340;5.980;2023-12-20T11:50:57;98769.09;;;6.36;100.00
64713;BME280;51140;45.340;5.980;2023-12-20T11:53:22;98761.44;;;6.46;100.00
64713;BME280;51140;45.340;5.980;2023-12-20T11:55:50;98761.19;;;6.36;100.00
64713;BME280;51140;45.340;5.980;2023-12-20T11:58:16;98762.66;;;6.31;100.00
64713;BME280;51140;45.340;5.980;2023-12-20T12:00:44;98767.34;;;6.29;100.00
64713;BME280;51140;45.340;5.980;2023-12-20T12:03:10;98768.28;;;6.17;100.00
64713;BME280;51140;45.340;5.980;2023-12-20T12:05:35;98761.34;;;6.22;100.00
64713;BME280;51140;45.340;5.980;2023-12-20T12:08:02;98758.25;;;6.25;100.00
64713;BME280;51140;45.340;5.980;2023-12-20T12:10:27;98755.31;;;6.33;100.00
64713;BME280;51140;45.340;5.980;2023-12-20T12:12:53;98749.84;;;6.35;100.00
64713;BME280;51140;45.340;5.980;2023-12-20T12:15:19;98748.00;;;6.36;100.00
64713;BME280;51140;45.340;5.980;2023-12-20T12:17:52;98745.13;;;6.37;100.00
64713;BME280;51140;45.340;5.980;2023-12-20T12:20:20;98750.25;;;6.50;100.00
64713;BME280;51140;45.340;5.980;2023-12-20T12:22:45;98743.72;;;6.53;100.00
64713;BME280;51140;45.340;5.980;2023-12-20T12:25:13;98748.91;;;6.59;100.00
64713;BME280;51140;45.340;5.980;2023-12-20T12:27:40;98741.94;;;6.65;100.00
64713;BME280;51140;45.340;5.980;2023-12-20T12:30:06;98736.78;;;6.70;100.00
64713;BME280;51140;45.340;5.980;2023-12-20T12:32:32;98744.72;;;6.70;100.00
64713;BME280;51140;45.340;5.980;2023-12-20T12:34:58;98729.69;;;6.70;100.00
64713;BME280;51140;45.340;5.980;2023-12-20T12:37:23;98736.47;;;6.78;100.00
64713;BME280;51140;45.340;5.980;2023-12-20T12:39:49;98738.88;;;6.79;100.00
64713;BME280;51140;45.340;5.980;2023-12-20T12:42:15;98740.72;;;6.79;100.00
64713;BME280;51140;45.340;5.980;2023-12-20T12:44:40;98751.28;;;6.79;100.00
64713;BME280;51140;45.340;5.980;2023-12-20T12:47:06;98752.88;;;6.80;100.00
64713;BME280;51140;45.340;5.980;2023-12-20T12:49:32;98757.34;;;6.79;100.00
64713;BME280;51140;45.340;5.980;2023-12-20T12:51:57;98742.22;;;6.86;100.00
64713;BME280;51140;45.340;5.980;2023-12-20T12:54:23;98742.91;;;6.93;100.00
64713;BME280;51140;45.340;5.980;2023-12-20T12:56:49;98746.50;;;6.87;100.00